createdAt,value
2018-05-14T00:02:23.587Z,90.70
2018-05-14T00:04:51.965Z,90.90
2018-05-14T00:07:20.341Z,90.90
2018-05-14T00:09:48.737Z,90.80
2018-05-14T00:12:17.868Z,90.90
2018-05-14T00:14:46.268Z,90.90
2018-05-14T00:17:14.653Z,90.80
2018-05-14T00:19:43.065Z,90.80
2018-05-14T00:22:12.211Z,90.70
2018-05-14T00:24:40.590Z,90.60
2018-05-14T00:27:09.023Z,90.50
2018-05-14T00:29:38.153Z,91.00
2018-05-14T00:32:06.645Z,91.00
2018-05-14T00:34:35.031Z,91.00
2018-05-14T00:37:03.604Z,90.90
2018-05-14T00:39:32.011Z,90.80
2018-05-14T00:42:00.387Z,91.10
2018-05-14T00:44:28.791Z,91.00
2018-05-14T00:46:57.942Z,91.00
2018-05-14T00:49:26.451Z,91.00
2018-05-14T00:51:55.518Z,91.30
2018-05-14T00:54:24.136Z,91.30
2018-05-14T00:56:52.516Z,91.60
2018-05-14T00:59:20.890Z,91.50
2018-05-14T01:01:49.292Z,91.60
2018-05-14T01:04:18.433Z,91.70
2018-05-14T01:06:46.838Z,91.70
2018-05-14T01:09:16.724Z,91.70
2018-05-14T01:11:45.140Z,91.70
2018-05-14T01:14:15.389Z,92.20
2018-05-14T01:16:44.552Z,92.00
2018-05-14T01:19:12.973Z,91.90
2018-05-14T01:21:41.354Z,92.00
2018-05-14T01:24:09.749Z,92.00
2018-05-14T01:26:38.125Z,92.00
2018-05-14T01:29:06.526Z,92.10
2018-05-14T01:31:34.901Z,92.20
2018-05-14T01:34:03.473Z,92.20
2018-05-14T01:36:31.870Z,92.20
2018-05-14T01:39:00.253Z,92.30
2018-05-14T01:41:28.663Z,92.30
2018-05-14T01:43:57.813Z,92.50
2018-05-14T01:46:26.322Z,92.50
2018-05-14T01:48:54.701Z,92.50
2018-05-14T01:51:23.244Z,92.50
2018-05-14T01:53:51.621Z,92.40
2018-05-14T01:56:19.997Z,92.50
2018-05-14T01:58:48.401Z,92.30
2018-05-14T02:01:16.788Z,92.40
2018-05-14T02:03:45.191Z,92.40
2018-05-14T02:06:13.569Z,92.20
2018-05-14T02:08:41.978Z,92.10
2018-05-14T02:11:10.360Z,92.10
2018-05-14T02:13:38.873Z,92.20
2018-05-14T02:16:07.285Z,92.20
2018-05-14T02:18:35.826Z,92.30
2018-05-14T02:21:04.236Z,92.60
2018-05-14T02:23:32.613Z,92.40
2018-05-14T02:26:01.470Z,92.20
2018-05-14T02:28:29.845Z,92.30
2018-05-14T02:30:58.220Z,92.40
2018-05-14T02:33:26.619Z,92.20
2018-05-14T02:35:54.993Z,92.20
2018-05-14T02:38:23.405Z,92.10
2018-05-14T02:40:52.553Z,92.30
2018-05-14T02:43:20.961Z,92.20
2018-05-14T02:45:49.360Z,92.20
2018-05-14T02:48:17.738Z,92.10
2018-05-14T02:50:46.905Z,92.10
2018-05-14T02:53:15.290Z,92.30
2018-05-14T02:55:43.693Z,92.30
2018-05-14T02:58:12.070Z,92.20
2018-05-14T03:00:40.533Z,92.30
2018-05-14T03:03:08.916Z,92.10
2018-05-14T03:05:37.292Z,92.10
2018-05-14T03:08:06.458Z,92.20
2018-05-14T03:10:34.989Z,92.20
2018-05-14T03:13:03.329Z,92.20
2018-05-14T03:15:31.705Z,92.20
2018-05-14T03:18:00.486Z,92.20
2018-05-14T03:20:28.867Z,92.20
2018-05-14T03:22:57.246Z,92.00
2018-05-14T03:25:25.644Z,91.80
2018-05-14T03:27:54.029Z,91.70
2018-05-14T03:30:22.434Z,91.80
2018-05-14T03:32:51.581Z,91.60
2018-05-14T03:35:20.260Z,91.60
2018-05-14T03:37:48.638Z,91.60
2018-05-14T03:40:17.017Z,91.60
2018-05-14T03:42:45.429Z,91.70
2018-05-14T03:45:13.808Z,91.50
2018-05-14T03:47:42.210Z,91.50
2018-05-14T03:50:11.349Z,91.50
2018-05-14T03:52:39.926Z,91.50
2018-05-14T03:55:08.311Z,91.60
2018-05-14T03:57:36.691Z,91.50
2018-05-14T04:00:22.981Z,91.40
2018-05-14T04:03:09.114Z,91.40
2018-05-14T04:05:55.325Z,91.50
2018-05-14T04:08:30.545Z,91.50
2018-05-14T04:10:59.768Z,91.70
2018-05-14T04:13:29.430Z,91.80
2018-05-14T04:15:58.002Z,91.80
2018-05-14T04:18:27.304Z,91.60
2018-05-14T04:20:57.047Z,91.60
2018-05-14T04:23:26.965Z,91.80
2018-05-14T04:25:57.609Z,91.70
2018-05-14T04:28:28.849Z,91.70
2018-05-14T04:30:58.418Z,91.70
2018-05-14T04:33:27.509Z,91.70
2018-05-14T04:35:57.398Z,91.80
2018-05-14T04:38:27.347Z,91.70
2018-05-14T04:40:56.233Z,91.80
2018-05-14T04:43:24.664Z,91.80
2018-05-14T04:45:55.068Z,91.90
2018-05-14T04:48:27.888Z,91.80
2018-05-14T04:50:56.263Z,91.80
2018-05-14T04:53:26.985Z,91.60
2018-05-14T04:55:55.645Z,91.70
2018-05-14T04:58:24.458Z,91.70
2018-05-14T05:00:55.062Z,91.50
2018-05-14T05:03:23.441Z,91.50
2018-05-14T05:05:54.030Z,91.60
2018-05-14T05:08:22.472Z,91.90
2018-05-14T05:10:52.023Z,91.60
2018-05-14T05:13:20.407Z,91.50
2018-05-14T05:15:48.786Z,91.50
2018-05-14T05:18:17.188Z,91.50
2018-05-14T05:20:45.571Z,91.40
2018-05-14T05:23:14.011Z,91.20
2018-05-14T05:25:42.389Z,91.20
2018-05-14T05:28:10.793Z,91.20
2018-05-14T05:30:39.339Z,91.30
2018-05-14T05:33:07.748Z,91.00
2018-05-14T05:35:36.174Z,91.10
2018-05-14T05:38:05.341Z,90.90
2018-05-14T05:40:33.745Z,90.90
2018-05-14T05:43:02.902Z,90.80
2018-05-14T05:45:31.323Z,90.80
2018-05-14T05:48:00.492Z,90.80
2018-05-14T05:50:28.872Z,90.80
2018-05-14T05:52:57.276Z,90.80
2018-05-14T05:55:27.277Z,90.10
2018-05-14T05:57:55.728Z,90.10
2018-05-14T06:00:24.112Z,90.40
2018-05-14T06:02:52.676Z,90.40
2018-05-14T06:05:21.064Z,90.50
2018-05-14T06:07:49.458Z,90.20
2018-05-14T06:10:19.165Z,90.20
2018-05-14T06:12:47.557Z,90.00
2018-05-14T06:15:15.965Z,89.80
2018-05-14T06:17:44.351Z,89.80
2018-05-14T06:20:12.871Z,90.00
2018-05-14T06:22:41.249Z,90.30
2018-05-14T06:25:09.643Z,90.00
2018-05-14T06:27:38.065Z,89.60
2018-05-14T06:30:06.449Z,89.30
2018-05-14T06:32:34.853Z,89.20
2018-05-14T06:35:03.238Z,88.90
2018-05-14T06:37:31.812Z,89.10
2018-05-14T06:40:00.199Z,89.60
2018-05-14T06:42:28.589Z,89.60
2018-05-14T06:44:57.138Z,89.60
2018-05-14T06:47:26.165Z,89.20
2018-05-14T06:49:54.674Z,89.20
2018-05-14T06:52:22.976Z,89.40
2018-05-14T06:54:51.590Z,89.10
2018-05-14T06:57:19.974Z,88.90
2018-05-14T06:59:48.369Z,88.20
2018-05-14T07:02:16.777Z,87.70
2018-05-14T07:04:45.939Z,87.70
2018-05-14T07:07:14.353Z,87.60
2018-05-14T07:09:43.514Z,86.80
2018-05-14T07:12:12.053Z,86.70
2018-05-14T07:14:40.441Z,85.90
2018-05-14T07:17:08.823Z,86.40
2018-05-14T07:19:37.237Z,85.80
2018-05-14T07:22:05.640Z,84.30
2018-05-14T07:24:34.044Z,83.40
2018-05-14T07:27:02.440Z,83.10
2018-05-14T07:29:31.032Z,83.60
2018-05-14T07:31:59.421Z,84.00
2018-05-14T07:34:27.801Z,84.30
2018-05-14T07:36:56.205Z,83.90
2018-05-14T07:39:25.344Z,83.50
2018-05-14T07:41:53.753Z,83.60
2018-05-14T07:44:22.137Z,82.90
2018-05-14T07:46:50.719Z,82.50
2018-05-14T07:49:19.103Z,82.40
2018-05-14T07:51:47.481Z,81.40
2018-05-14T07:54:15.881Z,81.20
2018-05-14T07:56:44.265Z,80.80
2018-05-14T07:59:12.660Z,81.10
2018-05-14T08:01:41.806Z,80.00
2018-05-14T08:04:10.233Z,79.90
2018-05-14T08:06:39.612Z,79.20
2018-05-14T08:09:07.890Z,79.00
2018-05-14T08:11:36.297Z,78.60
2018-05-14T08:14:05.456Z,78.10
2018-05-14T08:16:33.865Z,78.10
2018-05-14T08:19:03.013Z,76.90
2018-05-14T08:21:31.795Z,76.90
2018-05-14T08:24:00.173Z,76.30
2018-05-14T08:26:28.552Z,76.90
2018-05-14T08:28:57.175Z,76.00
2018-05-14T08:31:25.420Z,76.50
2018-05-14T08:33:53.776Z,76.10
2018-05-14T08:36:22.152Z,75.60
2018-05-14T08:38:50.564Z,75.80
2018-05-14T08:41:18.947Z,75.30
2018-05-14T08:43:47.328Z,75.30
2018-05-14T08:46:15.740Z,75.60
2018-05-14T08:48:44.895Z,76.30
2018-05-14T08:51:13.303Z,76.20
2018-05-14T08:53:42.449Z,76.60
2018-05-14T08:56:10.878Z,76.10
2018-05-14T08:58:39.256Z,76.30
2018-05-14T09:01:07.700Z,76.20
2018-05-14T09:03:36.108Z,76.40
2018-05-14T09:06:04.480Z,75.60
2018-05-14T09:08:33.649Z,76.10
2018-05-14T09:11:02.027Z,76.10
2018-05-14T09:13:30.705Z,75.50
2018-05-14T09:15:59.080Z,76.00
2018-05-14T09:18:27.461Z,76.50
2018-05-14T09:20:55.876Z,74.80
2018-05-14T09:23:24.262Z,74.30
2018-05-14T09:25:52.665Z,73.60
2018-05-14T09:28:21.820Z,72.40
2018-05-14T09:30:50.319Z,72.40
2018-05-14T09:33:18.641Z,72.30
2018-05-14T09:35:47.022Z,72.00
2018-05-14T09:38:15.432Z,71.20
2018-05-14T09:40:43.813Z,72.40
2018-05-14T09:43:12.232Z,71.60
2018-05-14T09:45:41.385Z,72.50
2018-05-14T09:48:10.261Z,73.30
2018-05-14T09:50:38.646Z,71.40
2018-05-14T09:53:07.029Z,72.20
2018-05-14T09:55:35.451Z,72.40
2018-05-14T09:58:04.606Z,71.50
2018-05-14T10:00:33.005Z,71.50
2018-05-14T10:03:02.156Z,68.70
2018-05-14T10:05:30.565Z,68.70
2018-05-14T10:07:58.959Z,69.00
2018-05-14T10:10:27.342Z,69.10
2018-05-14T10:12:55.816Z,67.40
2018-05-14T10:15:24.148Z,68.30
2018-05-14T10:17:52.548Z,68.10
2018-05-14T10:20:20.927Z,67.70
2018-05-14T10:22:49.505Z,67.70
2018-05-14T10:25:18.170Z,68.10
2018-05-14T10:27:46.550Z,68.10
2018-05-14T10:30:14.944Z,66.70
2018-05-14T10:32:43.329Z,66.70
2018-05-14T10:35:11.732Z,64.70
2018-05-14T10:37:40.114Z,63.40
2018-05-14T10:40:08.643Z,61.50
2018-05-14T10:42:37.029Z,60.70
2018-05-14T10:45:05.417Z,61.20
2018-05-14T10:47:33.817Z,59.50
2018-05-14T10:50:02.211Z,59.40
2018-05-14T10:52:30.610Z,60.50
2018-05-14T10:54:59.755Z,62.40
2018-05-14T10:57:28.328Z,62.20
2018-05-14T10:59:56.716Z,59.90
2018-05-14T11:02:25.098Z,57.00
2018-05-14T11:04:53.514Z,55.60
2018-05-14T11:07:22.656Z,55.50
2018-05-14T11:09:51.056Z,55.50
2018-05-14T11:12:19.438Z,54.50
2018-05-14T11:14:47.870Z,55.10
2018-05-14T11:17:17.013Z,56.10
2018-05-14T11:19:45.435Z,56.10
2018-05-14T11:22:14.601Z,52.60
2018-05-14T11:24:42.979Z,52.60
2018-05-14T11:27:11.379Z,50.40
2018-05-14T11:29:39.758Z,50.40
2018-05-14T11:32:08.389Z,50.70
2018-05-14T11:34:36.783Z,52.20
2018-05-14T11:37:05.142Z,53.00
2018-05-14T11:39:33.538Z,51.80
2018-05-14T11:42:01.915Z,50.10
2018-05-14T11:44:30.320Z,50.60
2018-05-14T11:46:58.708Z,50.00
2018-05-14T11:49:27.249Z,51.30
2018-05-14T11:51:55.632Z,51.30
2018-05-14T11:54:24.013Z,47.80
2018-05-14T11:56:52.449Z,48.30
2018-05-14T11:59:21.596Z,49.00
2018-05-14T12:01:49.992Z,49.00
2018-05-14T12:04:18.374Z,50.30
2018-05-14T12:06:46.780Z,50.90
2018-05-14T12:09:15.953Z,49.50
2018-05-14T12:11:44.354Z,49.50
2018-05-14T12:14:13.533Z,46.40
2018-05-14T12:16:41.911Z,46.40
2018-05-14T12:19:10.308Z,46.90
2018-05-14T12:21:39.453Z,45.20
2018-05-14T12:24:08.230Z,45.20
2018-05-14T12:26:36.609Z,45.60
2018-05-14T12:29:04.988Z,42.70
2018-05-14T12:31:33.384Z,41.80
2018-05-14T12:34:01.765Z,43.70
2018-05-14T12:36:30.171Z,40.80
2018-05-14T12:38:58.550Z,40.40
2018-05-14T12:41:27.190Z,39.20
2018-05-14T12:43:55.570Z,39.10
2018-05-14T12:46:23.946Z,38.10
2018-05-14T12:48:52.340Z,39.70
2018-05-14T12:51:20.720Z,40.00
2018-05-14T12:53:49.141Z,40.80
2018-05-14T12:56:18.291Z,40.60
2018-05-14T12:58:46.710Z,40.50
2018-05-14T13:01:15.848Z,40.10
2018-05-14T13:03:44.220Z,40.10
2018-05-14T13:06:12.638Z,41.60
2018-05-14T13:08:41.026Z,41.70
2018-05-14T13:11:09.425Z,41.00
2018-05-14T13:13:38.573Z,39.20
2018-05-14T13:16:07.005Z,39.10
2018-05-14T13:18:36.154Z,40.80
2018-05-14T13:21:04.536Z,40.70
2018-05-14T13:23:32.947Z,41.90
2018-05-14T13:26:02.093Z,42.60
2018-05-14T13:28:30.501Z,42.60
2018-05-14T13:30:59.642Z,45.10
2018-05-14T13:33:28.116Z,45.10
2018-05-14T13:35:57.270Z,45.20
2018-05-14T13:38:25.649Z,45.20
2018-05-14T13:40:54.056Z,47.10
2018-05-14T13:43:23.196Z,45.10
2018-05-14T13:45:51.602Z,45.10
2018-05-14T13:48:20.063Z,48.00
2018-05-14T13:50:48.848Z,53.70
2018-05-14T13:53:17.228Z,57.20
2018-05-14T13:55:45.619Z,59.50
2018-05-14T13:58:14.017Z,62.90
2018-05-14T14:00:42.402Z,67.00
2018-05-14T14:03:10.805Z,70.50
2018-05-14T14:05:39.952Z,74.30
2018-05-14T14:08:08.363Z,74.20
2018-05-14T14:10:37.504Z,76.40
2018-05-14T14:13:05.908Z,75.90
2018-05-14T14:15:34.324Z,77.00
2018-05-14T14:18:03.476Z,77.40
2018-05-14T14:20:31.880Z,77.40
2018-05-14T14:23:01.025Z,77.60
2018-05-14T14:25:29.425Z,77.40
2018-05-14T14:27:57.819Z,77.50
2018-05-14T14:30:26.502Z,77.50
2018-05-14T14:32:54.887Z,77.20
2018-05-14T14:35:23.272Z,77.60
2018-05-14T14:37:51.689Z,76.70
2018-05-14T14:40:20.072Z,75.60
2018-05-14T14:42:48.473Z,74.30
2018-05-14T14:45:16.854Z,73.90
2018-05-14T14:47:45.532Z,72.80
2018-05-14T14:50:13.920Z,71.20
2018-05-14T14:52:42.319Z,70.00
2018-05-14T14:55:11.341Z,71.00
2018-05-14T14:57:40.485Z,70.30
2018-05-14T15:00:08.913Z,70.30
2018-05-14T15:02:37.293Z,68.80
2018-05-14T15:05:06.487Z,69.30
2018-05-14T15:07:34.869Z,69.30
2018-05-14T15:10:04.021Z,70.60
2018-05-14T15:12:32.433Z,70.40
2018-05-14T15:15:01.575Z,68.70
2018-05-14T15:17:29.980Z,68.80
2018-05-14T15:19:58.393Z,68.90
2018-05-14T15:22:27.968Z,66.00
2018-05-14T15:24:56.345Z,66.10
2018-05-14T15:27:24.753Z,66.20
2018-05-14T15:29:54.674Z,64.90
2018-05-14T15:32:23.820Z,63.10
2018-05-14T15:34:52.237Z,62.30
2018-05-14T15:37:20.613Z,61.50
2018-05-14T15:39:49.032Z,62.60
2018-05-14T15:42:17.408Z,62.00
2018-05-14T15:44:46.784Z,62.80
2018-05-14T15:47:15.961Z,62.10
2018-05-14T15:49:44.424Z,62.10
2018-05-14T15:52:12.849Z,62.90
2018-05-14T15:54:41.278Z,63.70
2018-05-14T15:57:09.961Z,62.50
2018-05-14T15:59:38.338Z,62.40
2018-05-14T16:02:06.717Z,61.20
2018-05-14T16:04:35.133Z,59.00
2018-05-14T16:07:03.522Z,57.80
2018-05-14T16:09:32.069Z,56.90
2018-05-14T16:12:00.445Z,55.50
2018-05-14T16:14:28.834Z,54.60
2018-05-14T16:16:57.255Z,54.80
2018-05-14T16:19:26.400Z,54.80
2018-05-14T16:21:54.837Z,54.80
2018-05-14T16:24:23.256Z,55.10
2018-05-14T16:26:51.645Z,55.50
2018-05-14T16:29:20.117Z,54.70
2018-05-14T16:31:48.528Z,55.90
2018-05-14T16:34:18.093Z,56.60
2018-05-14T16:36:46.493Z,56.60
2018-05-14T16:39:15.006Z,57.40
2018-05-14T16:41:44.201Z,58.60
2018-05-14T16:44:13.353Z,58.90
2018-05-14T16:46:42.068Z,58.80
2018-05-14T16:49:11.261Z,59.30
2018-05-14T16:51:39.642Z,59.30
2018-05-14T16:54:08.127Z,59.10
2018-05-14T16:56:36.591Z,59.10
2018-05-14T16:59:05.021Z,59.00
2018-05-14T17:01:33.499Z,58.70
2018-05-14T17:04:01.922Z,58.70
2018-05-14T17:06:30.329Z,59.40
2018-05-14T17:08:59.792Z,59.90
2018-05-14T17:11:28.414Z,59.80
2018-05-14T17:13:56.803Z,62.60
2018-05-14T17:16:25.946Z,64.30
2018-05-14T17:18:54.357Z,64.30
2018-05-14T17:21:22.735Z,64.30
2018-05-14T17:23:51.288Z,62.90
2018-05-14T17:26:19.698Z,62.20
2018-05-14T17:28:48.075Z,61.40
2018-05-14T17:31:16.490Z,62.00
2018-05-14T17:33:46.174Z,60.90
2018-05-14T17:36:15.360Z,61.70
2018-05-14T17:38:43.784Z,61.60
2018-05-14T17:41:12.692Z,63.60
2018-05-14T17:43:41.977Z,63.10
2018-05-14T17:46:10.419Z,63.40
2018-05-14T17:48:38.916Z,64.60
2018-05-14T17:51:08.210Z,64.80
2018-05-14T17:53:37.403Z,65.50
2018-05-14T17:56:05.783Z,64.90
2018-05-14T17:58:35.165Z,63.50
2018-05-14T18:01:03.634Z,63.20
2018-05-14T18:03:32.268Z,62.80
2018-05-14T18:06:01.769Z,64.80
2018-05-14T18:08:30.607Z,64.70
2018-05-14T18:11:00.312Z,65.10
2018-05-14T18:13:29.206Z,65.00
2018-05-14T18:15:59.247Z,66.10
2018-05-14T18:18:28.743Z,66.50
2018-05-14T18:21:01.937Z,66.40
2018-05-14T18:23:32.814Z,66.50
2018-05-14T18:26:10.678Z,67.00
2018-05-14T18:28:42.510Z,66.90
2018-05-14T18:31:19.053Z,66.90
2018-05-14T18:33:49.898Z,67.20
2018-05-14T18:36:20.748Z,67.50
2018-05-14T18:38:50.673Z,66.30
2018-05-14T18:41:20.753Z,66.30
2018-05-14T18:43:51.276Z,66.10
2018-05-14T18:46:20.553Z,66.50
2018-05-14T18:48:51.523Z,66.90
2018-05-14T18:51:21.813Z,67.80
2018-05-14T18:53:53.606Z,67.60
2018-05-14T18:56:24.141Z,67.60
2018-05-14T18:58:54.171Z,68.20
2018-05-14T19:01:24.473Z,68.00
2018-05-14T19:03:54.278Z,66.70
2018-05-14T19:06:24.630Z,67.20
2018-05-14T19:08:55.158Z,67.20
2018-05-14T19:11:29.828Z,66.90
2018-05-14T19:13:59.712Z,67.00
2018-05-14T19:16:34.703Z,65.40
2018-05-14T19:19:05.542Z,64.40
2018-05-14T19:21:36.203Z,64.40
2018-05-14T19:24:05.434Z,62.60
2018-05-14T19:26:35.785Z,59.50
2018-05-14T19:29:12.507Z,57.90
2018-05-14T19:31:44.334Z,57.90
2018-05-14T19:34:19.011Z,55.60
2018-05-14T19:36:48.643Z,55.50
2018-05-14T19:39:24.352Z,55.30
2018-05-14T19:41:55.545Z,55.30
2018-05-14T19:44:25.938Z,56.00
2018-05-14T19:46:56.689Z,56.00
2018-05-14T19:49:26.775Z,59.60
2018-05-14T19:51:58.101Z,59.30
2018-05-14T19:54:28.404Z,60.10
2018-05-14T19:56:56.881Z,60.40
2018-05-14T19:59:25.346Z,59.70
2018-05-14T20:01:57.173Z,59.60
2018-05-14T20:04:26.879Z,59.00
2018-05-14T20:06:55.662Z,58.80
2018-05-14T20:09:25.191Z,58.30
2018-05-14T20:11:54.885Z,60.90
2018-05-14T20:14:24.585Z,60.80
2018-05-14T20:16:54.203Z,60.40
2018-05-14T20:19:24.640Z,59.60
2018-05-14T20:21:54.133Z,59.60
2018-05-14T20:24:22.797Z,59.60
2018-05-14T20:26:53.187Z,62.40
2018-05-14T20:29:22.331Z,62.50
2018-05-14T20:31:50.914Z,63.00
2018-05-14T20:34:20.258Z,61.90
2018-05-14T20:36:49.461Z,63.40
2018-05-14T20:39:20.433Z,63.40
2018-05-14T20:41:51.053Z,63.40
2018-05-14T20:44:20.434Z,62.60
2018-05-14T20:46:50.280Z,59.60
2018-05-14T20:49:20.950Z,58.10
2018-05-14T20:51:51.436Z,58.00
2018-05-14T20:54:21.762Z,57.50
2018-05-14T20:56:51.829Z,57.10
2018-05-14T20:59:21.631Z,56.10
2018-05-14T21:01:51.128Z,56.30
2018-05-14T21:04:22.953Z,55.70
2018-05-14T21:06:52.605Z,55.70
2018-05-14T21:09:22.512Z,55.40
2018-05-14T21:11:51.758Z,55.80
2018-05-14T21:14:20.840Z,55.80
2018-05-14T21:16:50.562Z,55.60
2018-05-14T21:19:20.967Z,55.90
2018-05-14T21:21:50.593Z,55.90
2018-05-14T21:24:19.457Z,56.30
2018-05-14T21:26:48.203Z,57.00
2018-05-14T21:29:16.637Z,58.50
2018-05-14T21:31:47.339Z,59.20
2018-05-14T21:34:16.926Z,59.20
2018-05-14T21:36:46.844Z,59.00
2018-05-14T21:39:16.812Z,60.30
2018-05-14T21:41:47.042Z,61.30
2018-05-14T21:44:16.848Z,61.00
2018-05-14T21:46:46.112Z,62.40
2018-05-14T21:49:15.693Z,62.40
2018-05-14T21:51:44.167Z,62.10
2018-05-14T21:54:12.550Z,62.60
2018-05-14T21:56:42.722Z,64.10
2018-05-14T21:59:11.454Z,64.80
2018-05-14T22:01:42.104Z,65.10
2018-05-14T22:04:11.908Z,64.30
2018-05-14T22:06:42.000Z,65.00
2018-05-14T22:09:10.722Z,65.00
2018-05-14T22:11:39.392Z,65.80
2018-05-14T22:14:08.724Z,66.50
2018-05-14T22:16:37.109Z,66.50
2018-05-14T22:19:05.556Z,66.80
2018-05-14T22:21:33.913Z,66.40
2018-05-14T22:24:02.293Z,66.50
2018-05-14T22:26:30.792Z,66.10
2018-05-14T22:28:59.737Z,65.40
2018-05-14T22:31:28.141Z,65.00
2018-05-14T22:33:56.521Z,65.60
2018-05-14T22:36:24.944Z,66.50
2018-05-14T22:38:53.325Z,67.10
2018-05-14T22:41:21.745Z,66.50
2018-05-14T22:43:50.169Z,66.30
2018-05-14T22:46:18.561Z,66.40
2018-05-14T22:48:56.723Z,66.90
2018-05-14T22:51:27.285Z,67.20
2018-05-14T22:53:55.944Z,67.20
2018-05-14T22:56:24.340Z,67.00
2018-05-14T22:58:52.740Z,66.90
2018-05-14T23:01:22.651Z,67.30
2018-05-14T23:03:51.153Z,67.70
2018-05-14T23:06:20.356Z,67.90
2018-05-14T23:08:49.491Z,68.70
2018-05-14T23:11:18.595Z,68.60
2018-05-14T23:13:47.012Z,69.10
2018-05-14T23:16:15.385Z,69.70
2018-05-14T23:18:43.940Z,69.80
2018-05-14T23:21:12.345Z,69.80
2018-05-14T23:23:40.741Z,69.50
2018-05-14T23:26:09.881Z,70.00
2018-05-14T23:28:38.281Z,70.00
2018-05-14T23:31:08.175Z,70.80
2018-05-14T23:33:40.369Z,71.20
2018-05-14T23:36:10.489Z,72.50
2018-05-14T23:38:40.611Z,73.00
2018-05-14T23:41:08.993Z,73.00
2018-05-14T23:43:37.366Z,73.40
2018-05-14T23:46:05.767Z,73.60
2018-05-14T23:48:34.913Z,75.30
2018-05-14T23:51:03.373Z,75.30
2018-05-14T23:53:31.976Z,75.60
2018-05-14T23:56:00.391Z,76.40
2018-05-14T23:58:28.769Z,76.80
